sensor_id;sensor_type;location;lat;lon;timestamp;P1;durP1;ratioP1;P2;durP2;ratioP2
7195;SDS011;3639;51.308;5.624;2023-03-03T00:01:44;36.30;;;14.30;;
7195;SDS011;3639;51.308;5.624;2023-03-03T00:04:09;43.50;;;16.50;;
7195;SDS011;3639;51.308;5.624;2023-03-03T00:06:35;35.37;;;14.63;;
7195;SDS011;3639;51.308;5.624;2023-03-03T00:09:01;39.17;;;15.80;;
7195;SDS011;3639;51.308;5.624;2023-03-03T00:11:26;35.27;;;15.43;;
7195;SDS011;3639;51.308;5.624;2023-03-03T00:13:53;42.10;;;15.33;;
7195;SDS011;3639;51.308;5.624;2023-03-03T00:19:02;33.60;;;13.27;;
7195;SDS011;3639;51.308;5.624;2023-03-03T00:21:40;43.10;;;15.93;;
7195;SDS011;3639;51.308;5.624;2023-03-03T00:26:38;36.97;;;16.27;;
7195;SDS011;3639;51.308;5.624;2023-03-03T00:31:51;32.80;;;14.63;;
7195;SDS011;3639;51.308;5.624;2023-03-03T00:36:44;37.67;;;15.13;;
7195;SDS011;3639;51.308;5.624;2023-03-03T00:39:28;36.97;;;16.10;;
7195;SDS011;3639;51.308;5.624;2023-03-03T00:42:00;38.93;;;14.60;;
7195;SDS011;3639;51.308;5.624;2023-03-03T00:52:35;31.90;;;14.33;;
7195;SDS011;3639;51.308;5.624;2023-03-03T00:55:09;36.33;;;15.57;;
7195;SDS011;3639;51.308;5.624;2023-03-03T00:57:36;40.03;;;16.30;;
7195;SDS011;3639;51.308;5.624;2023-03-03T01:00:02;39.97;;;17.37;;
7195;SDS011;3639;51.308;5.624;2023-03-03T01:02:28;37.07;;;16.10;;
7195;SDS011;3639;51.308;5.624;2023-03-03T01:04:55;38.07;;;16.73;;
7195;SDS011;3639;51.308;5.624;2023-03-03T01:07:21;49.80;;;17.10;;
7195;SDS011;3639;51.308;5.624;2023-03-03T01:09:46;44.50;;;17.83;;
7195;SDS011;3639;51.308;5.624;2023-03-03T01:12:12;45.03;;;19.50;;
7195;SDS011;3639;51.308;5.624;2023-03-03T01:14:38;51.70;;;19.60;;
7195;SDS011;3639;51.308;5.624;2023-03-03T01:17:04;41.33;;;17.40;;
7195;SDS011;3639;51.308;5.624;2023-03-03T01:19:30;53.30;;;18.27;;
7195;SDS011;3639;51.308;5.624;2023-03-03T01:21:56;51.37;;;17.90;;
7195;SDS011;3639;51.308;5.624;2023-03-03T01:24:22;45.90;;;19.33;;
7195;SDS011;3639;51.308;5.624;2023-03-03T01:26:48;42.73;;;16.63;;
7195;SDS011;3639;51.308;5.624;2023-03-03T01:29:14;54.83;;;19.37;;
7195;SDS011;3639;51.308;5.624;2023-03-03T01:31:39;48.07;;;17.63;;
7195;SDS011;3639;51.308;5.624;2023-03-03T01:34:05;47.43;;;18.87;;
7195;SDS011;3639;51.308;5.624;2023-03-03T01:36:31;49.70;;;19.27;;
7195;SDS011;3639;51.308;5.624;2023-03-03T01:38:57;54.53;;;19.77;;
7195;SDS011;3639;51.308;5.624;2023-03-03T01:41:25;63.37;;;18.63;;
7195;SDS011;3639;51.308;5.624;2023-03-03T01:43:54;44.77;;;18.80;;
7195;SDS011;3639;51.308;5.624;2023-03-03T01:48:49;51.83;;;18.67;;
7195;SDS011;3639;51.308;5.624;2023-03-03T01:51:22;55.10;;;19.20;;
7195;SDS011;3639;51.308;5.624;2023-03-03T01:53:56;54.30;;;18.57;;
7195;SDS011;3639;51.308;5.624;2023-03-03T01:56:26;43.10;;;16.67;;
7195;SDS011;3639;51.308;5.624;2023-03-03T01:59:13;53.80;;;18.60;;
7195;SDS011;3639;51.308;5.624;2023-03-03T02:01:42;50.60;;;17.87;;
7195;SDS011;3639;51.308;5.624;2023-03-03T02:04:09;49.77;;;18.67;;
7195;SDS011;3639;51.308;5.624;2023-03-03T02:06:36;50.40;;;17.93;;
7195;SDS011;3639;51.308;5.624;2023-03-03T02:09:12;52.23;;;17.10;;
7195;SDS011;3639;51.308;5.624;2023-03-03T02:11:48;46.87;;;17.47;;
7195;SDS011;3639;51.308;5.624;2023-03-03T02:14:16;42.33;;;16.00;;
7195;SDS011;3639;51.308;5.624;2023-03-03T02:16:42;42.07;;;14.80;;
7195;SDS011;3639;51.308;5.624;2023-03-03T02:19:12;45.07;;;16.03;;
7195;SDS011;3639;51.308;5.624;2023-03-03T02:21:48;51.50;;;17.30;;
7195;SDS011;3639;51.308;5.624;2023-03-03T02:24:17;45.33;;;17.80;;
7195;SDS011;3639;51.308;5.624;2023-03-03T02:26:54;35.73;;;15.83;;
7195;SDS011;3639;51.308;5.624;2023-03-03T02:29:20;42.20;;;16.53;;
7195;SDS011;3639;51.308;5.624;2023-03-03T02:31:45;39.53;;;15.80;;
7195;SDS011;3639;51.308;5.624;2023-03-03T02:34:11;48.77;;;16.80;;
7195;SDS011;3639;51.308;5.624;2023-03-03T02:36:37;43.33;;;16.47;;
7195;SDS011;3639;51.308;5.624;2023-03-03T02:39:13;45.53;;;15.33;;
7195;SDS011;3639;51.308;5.624;2023-03-03T02:42:02;52.83;;;16.77;;
7195;SDS011;3639;51.308;5.624;2023-03-03T02:44:42;45.37;;;16.23;;
7195;SDS011;3639;51.308;5.624;2023-03-03T02:47:08;47.77;;;17.17;;
7195;SDS011;3639;51.308;5.624;2023-03-03T02:49:34;43.63;;;16.13;;
7195;SDS011;3639;51.308;5.624;2023-03-03T02:52:01;42.07;;;16.70;;
7195;SDS011;3639;51.308;5.624;2023-03-03T02:54:29;46.70;;;14.60;;
7195;SDS011;3639;51.308;5.624;2023-03-03T02:56:56;43.23;;;16.27;;
7195;SDS011;3639;51.308;5.624;2023-03-03T02:59:23;47.80;;;18.30;;
7195;SDS011;3639;51.308;5.624;2023-03-03T03:01:49;42.77;;;16.40;;
7195;SDS011;3639;51.308;5.624;2023-03-03T03:04:15;41.97;;;15.80;;
7195;SDS011;3639;51.308;5.624;2023-03-03T03:06:43;43.23;;;15.03;;
7195;SDS011;3639;51.308;5.624;2023-03-03T03:09:10;44.30;;;16.57;;
7195;SDS011;3639;51.308;5.624;2023-03-03T03:11:36;36.33;;;14.97;;
7195;SDS011;3639;51.308;5.624;2023-03-03T03:14:04;47.77;;;17.50;;
7195;SDS011;3639;51.308;5.624;2023-03-03T03:16:30;42.70;;;17.37;;
7195;SDS011;3639;51.308;5.624;2023-03-03T03:18:57;42.20;;;14.93;;
7195;SDS011;3639;51.308;5.624;2023-03-03T03:21:23;46.43;;;16.57;;
7195;SDS011;3639;51.308;5.624;2023-03-03T03:23:49;51.17;;;17.40;;
7195;SDS011;3639;51.308;5.624;2023-03-03T03:26:15;32.93;;;15.47;;
7195;SDS011;3639;51.308;5.624;2023-03-03T03:28:41;39.60;;;16.53;;
7195;SDS011;3639;51.308;5.624;2023-03-03T03:31:07;40.83;;;14.90;;
7195;SDS011;3639;51.308;5.624;2023-03-03T03:33:33;38.63;;;14.87;;
7195;SDS011;3639;51.308;5.624;2023-03-03T03:36:00;39.47;;;15.77;;
7195;SDS011;3639;51.308;5.624;2023-03-03T03:38:26;32.50;;;15.37;;
7195;SDS011;3639;51.308;5.624;2023-03-03T03:40:53;40.87;;;15.97;;
7195;SDS011;3639;51.308;5.624;2023-03-03T03:43:19;40.63;;;14.40;;
7195;SDS011;3639;51.308;5.624;2023-03-03T03:45:45;43.57;;;16.23;;
7195;SDS011;3639;51.308;5.624;2023-03-03T03:48:11;48.07;;;17.07;;
7195;SDS011;3639;51.308;5.624;2023-03-03T03:50:37;41.73;;;16.13;;
7195;SDS011;3639;51.308;5.624;2023-03-03T03:53:03;36.33;;;15.73;;
7195;SDS011;3639;51.308;5.624;2023-03-03T03:55:30;40.33;;;14.87;;
7195;SDS011;3639;51.308;5.624;2023-03-03T03:57:56;41.73;;;17.33;;
7195;SDS011;3639;51.308;5.624;2023-03-03T04:00:22;32.97;;;14.63;;
7195;SDS011;3639;51.308;5.624;2023-03-03T04:02:49;51.20;;;17.37;;
7195;SDS011;3639;51.308;5.624;2023-03-03T04:05:15;36.90;;;14.00;;
7195;SDS011;3639;51.308;5.624;2023-03-03T04:07:41;47.60;;;17.07;;
7195;SDS011;3639;51.308;5.624;2023-03-03T04:10:06;43.00;;;15.30;;
7195;SDS011;3639;51.308;5.624;2023-03-03T04:12:33;39.83;;;16.27;;
7195;SDS011;3639;51.308;5.624;2023-03-03T04:15:11;42.70;;;15.27;;
7195;SDS011;3639;51.308;5.624;2023-03-03T04:17:38;44.53;;;15.60;;
7195;SDS011;3639;51.308;5.624;2023-03-03T04:20:04;38.10;;;15.97;;
7195;SDS011;3639;51.308;5.624;2023-03-03T04:22:31;47.73;;;18.13;;
7195;SDS011;3639;51.308;5.624;2023-03-03T04:25:02;45.17;;;16.53;;
7195;SDS011;3639;51.308;5.624;2023-03-03T04:27:30;44.33;;;15.77;;
7195;SDS011;3639;51.308;5.624;2023-03-03T04:29:56;35.57;;;15.47;;
7195;SDS011;3639;51.308;5.624;2023-03-03T04:32:22;40.63;;;14.60;;
7195;SDS011;3639;51.308;5.624;2023-03-03T04:34:47;37.97;;;14.90;;
7195;SDS011;3639;51.308;5.624;2023-03-03T04:37:13;32.63;;;14.90;;
7195;SDS011;3639;51.308;5.624;2023-03-03T04:39:39;32.33;;;14.37;;
7195;SDS011;3639;51.308;5.624;2023-03-03T04:42:04;39.70;;;15.20;;
7195;SDS011;3639;51.308;5.624;2023-03-03T04:44:30;38.00;;;14.37;;
7195;SDS011;3639;51.308;5.624;2023-03-03T04:46:56;43.73;;;15.60;;
7195;SDS011;3639;51.308;5.624;2023-03-03T04:49:21;34.23;;;14.73;;
7195;SDS011;3639;51.308;5.624;2023-03-03T04:51:47;47.33;;;16.30;;
7195;SDS011;3639;51.308;5.624;2023-03-03T04:54:13;43.50;;;16.67;;
7195;SDS011;3639;51.308;5.624;2023-03-03T04:56:38;47.63;;;15.43;;
7195;SDS011;3639;51.308;5.624;2023-03-03T04:59:04;41.47;;;16.80;;
7195;SDS011;3639;51.308;5.624;2023-03-03T05:01:30;34.43;;;15.23;;
7195;SDS011;3639;51.308;5.624;2023-03-03T05:03:55;44.47;;;17.37;;
7195;SDS011;3639;51.308;5.624;2023-03-03T05:06:21;49.03;;;18.23;;
7195;SDS011;3639;51.308;5.624;2023-03-03T05:08:46;40.97;;;16.73;;
7195;SDS011;3639;51.308;5.624;2023-03-03T05:11:12;41.77;;;16.37;;
7195;SDS011;3639;51.308;5.624;2023-03-03T05:13:38;51.83;;;17.13;;
7195;SDS011;3639;51.308;5.624;2023-03-03T05:16:04;42.80;;;15.97;;
7195;SDS011;3639;51.308;5.624;2023-03-03T05:18:30;41.47;;;16.53;;
7195;SDS011;3639;51.308;5.624;2023-03-03T05:20:55;42.07;;;18.43;;
7195;SDS011;3639;51.308;5.624;2023-03-03T05:23:21;44.57;;;17.50;;
7195;SDS011;3639;51.308;5.624;2023-03-03T05:25:47;49.60;;;18.03;;
7195;SDS011;3639;51.308;5.624;2023-03-03T05:28:13;44.10;;;17.13;;
7195;SDS011;3639;51.308;5.624;2023-03-03T05:30:39;42.50;;;17.07;;
7195;SDS011;3639;51.308;5.624;2023-03-03T05:33:05;46.77;;;17.53;;
7195;SDS011;3639;51.308;5.624;2023-03-03T05:35:31;38.03;;;15.30;;
7195;SDS011;3639;51.308;5.624;2023-03-03T05:37:57;45.63;;;16.50;;
7195;SDS011;3639;51.308;5.624;2023-03-03T05:40:24;42.90;;;16.83;;
7195;SDS011;3639;51.308;5.624;2023-03-03T05:42:50;45.93;;;17.50;;
7195;SDS011;3639;51.308;5.624;2023-03-03T05:45:16;44.77;;;17.00;;
7195;SDS011;3639;51.308;5.624;2023-03-03T05:47:45;45.70;;;18.23;;
7195;SDS011;3639;51.308;5.624;2023-03-03T05:50:11;42.23;;;17.23;;
7195;SDS011;3639;51.308;5.624;2023-03-03T05:52:37;46.17;;;17.13;;
7195;SDS011;3639;51.308;5.624;2023-03-03T05:55:02;44.20;;;16.60;;
7195;SDS011;3639;51.308;5.624;2023-03-03T05:57:28;40.30;;;16.27;;
7195;SDS011;3639;51.308;5.624;2023-03-03T05:59:54;43.83;;;16.53;;
7195;SDS011;3639;51.308;5.624;2023-03-03T06:02:20;41.03;;;16.33;;
7195;SDS011;3639;51.308;5.624;2023-03-03T06:04:45;46.07;;;17.47;;
7195;SDS011;3639;51.308;5.624;2023-03-03T06:07:11;49.00;;;17.63;;
7195;SDS011;3639;51.308;5.624;2023-03-03T06:09:37;40.30;;;16.77;;
7195;SDS011;3639;51.308;5.624;2023-03-03T06:12:02;42.97;;;15.93;;
7195;SDS011;3639;51.308;5.624;2023-03-03T06:14:28;47.27;;;17.27;;
7195;SDS011;3639;51.308;5.624;2023-03-03T06:16:54;40.43;;;16.17;;
7195;SDS011;3639;51.308;5.624;2023-03-03T06:19:21;35.27;;;16.33;;
7195;SDS011;3639;51.308;5.624;2023-03-03T06:21:47;47.23;;;17.17;;
7195;SDS011;3639;51.308;5.624;2023-03-03T06:24:13;45.73;;;16.73;;
7195;SDS011;3639;51.308;5.624;2023-03-03T06:26:39;47.37;;;17.63;;
7195;SDS011;3639;51.308;5.624;2023-03-03T06:29:05;48.83;;;17.73;;
7195;SDS011;3639;51.308;5.624;2023-03-03T06:31:31;42.60;;;16.60;;
7195;SDS011;3639;51.308;5.624;2023-03-03T06:33:56;39.47;;;16.90;;
7195;SDS011;3639;51.308;5.624;2023-03-03T06:36:22;38.57;;;15.53;;
7195;SDS011;3639;51.308;5.624;2023-03-03T06:38:49;37.93;;;15.23;;
7195;SDS011;3639;51.308;5.624;2023-03-03T06:41:15;48.53;;;17.83;;
7195;SDS011;3639;51.308;5.624;2023-03-03T06:43:40;43.50;;;16.83;;
7195;SDS011;3639;51.308;5.624;2023-03-03T06:46:06;48.37;;;16.93;;
7195;SDS011;3639;51.308;5.624;2023-03-03T06:48:32;44.83;;;15.90;;
7195;SDS011;3639;51.308;5.624;2023-03-03T06:50:58;49.83;;;18.07;;
7195;SDS011;3639;51.308;5.624;2023-03-03T06:53:26;49.33;;;17.90;;
7195;SDS011;3639;51.308;5.624;2023-03-03T06:55:53;46.97;;;18.93;;
7195;SDS011;3639;51.308;5.624;2023-03-03T06:58:20;52.73;;;16.23;;
7195;SDS011;3639;51.308;5.624;2023-03-03T07:00:55;47.00;;;17.20;;
7195;SDS011;3639;51.308;5.624;2023-03-03T07:03:23;40.97;;;15.80;;
7195;SDS011;3639;51.308;5.624;2023-03-03T07:05:52;38.37;;;15.87;;
7195;SDS011;3639;51.308;5.624;2023-03-03T07:08:18;39.73;;;14.40;;
7195;SDS011;3639;51.308;5.624;2023-03-03T07:10:46;35.07;;;14.93;;
7195;SDS011;3639;51.308;5.624;2023-03-03T07:13:20;41.33;;;15.70;;
7195;SDS011;3639;51.308;5.624;2023-03-03T07:15:46;43.77;;;17.23;;
7195;SDS011;3639;51.308;5.624;2023-03-03T07:21:17;38.40;;;15.87;;
7195;SDS011;3639;51.308;5.624;2023-03-03T07:23:43;39.00;;;15.57;;
7195;SDS011;3639;51.308;5.624;2023-03-03T07:26:14;43.87;;;16.33;;
7195;SDS011;3639;51.308;5.624;2023-03-03T07:29:00;35.77;;;14.90;;
7195;SDS011;3639;51.308;5.624;2023-03-03T07:34:04;36.60;;;16.07;;
7195;SDS011;3639;51.308;5.624;2023-03-03T07:36:57;44.47;;;15.83;;
7195;SDS011;3639;51.308;5.624;2023-03-03T07:39:30;41.23;;;16.20;;
7195;SDS011;3639;51.308;5.624;2023-03-03T07:42:45;40.93;;;14.33;;
7195;SDS011;3639;51.308;5.624;2023-03-03T07:45:00;38.13;;;14.73;;
7195;SDS011;3639;51.308;5.624;2023-03-03T07:47:27;39.20;;;15.73;;
7195;SDS011;3639;51.308;5.624;2023-03-03T07:49:59;41.07;;;15.70;;
7195;SDS011;3639;51.308;5.624;2023-03-03T07:52:42;38.10;;;14.87;;
7195;SDS011;3639;51.308;5.624;2023-03-03T07:55:19;35.50;;;14.53;;
7195;SDS011;3639;51.308;5.624;2023-03-03T07:57:47;38.30;;;14.70;;
7195;SDS011;3639;51.308;5.624;2023-03-03T08:02:46;39.57;;;15.33;;
7195;SDS011;3639;51.308;5.624;2023-03-03T08:05:34;41.10;;;15.20;;
7195;SDS011;3639;51.308;5.624;2023-03-03T08:15:45;34.30;;;14.30;;
7195;SDS011;3639;51.308;5.624;2023-03-03T08:20:54;34.60;;;12.50;;
7195;SDS011;3639;51.308;5.624;2023-03-03T08:23:21;32.87;;;13.73;;
7195;SDS011;3639;51.308;5.624;2023-03-03T08:25:48;36.17;;;13.57;;
7195;SDS011;3639;51.308;5.624;2023-03-03T08:28:15;33.37;;;13.07;;
7195;SDS011;3639;51.308;5.624;2023-03-03T08:30:41;28.23;;;12.80;;
7195;SDS011;3639;51.308;5.624;2023-03-03T08:33:08;32.17;;;12.53;;
7195;SDS011;3639;51.308;5.624;2023-03-03T08:35:34;39.23;;;12.30;;
7195;SDS011;3639;51.308;5.624;2023-03-03T08:37:59;29.47;;;11.50;;
7195;SDS011;3639;51.308;5.624;2023-03-03T08:40:25;26.10;;;11.20;;
7195;SDS011;3639;51.308;5.624;2023-03-03T08:42:51;29.57;;;12.43;;
7195;SDS011;3639;51.308;5.624;2023-03-03T08:45:18;29.77;;;11.23;;
7195;SDS011;3639;51.308;5.624;2023-03-03T08:47:43;28.80;;;13.23;;
7195;SDS011;3639;51.308;5.624;2023-03-03T08:50:09;31.57;;;12.17;;
7195;SDS011;3639;51.308;5.624;2023-03-03T08:52:35;31.17;;;12.33;;
7195;SDS011;3639;51.308;5.624;2023-03-03T08:55:01;26.03;;;11.80;;
7195;SDS011;3639;51.308;5.624;2023-03-03T08:57:27;26.87;;;10.80;;
7195;SDS011;3639;51.308;5.624;2023-03-03T08:59:53;29.67;;;11.57;;
7195;SDS011;3639;51.308;5.624;2023-03-03T09:02:19;25.20;;;11.77;;
7195;SDS011;3639;51.308;5.624;2023-03-03T09:04:44;25.57;;;10.70;;
7195;SDS011;3639;51.308;5.624;2023-03-03T09:07:10;23.10;;;10.30;;
7195;SDS011;3639;51.308;5.624;2023-03-03T09:09:35;27.03;;;11.50;;
7195;SDS011;3639;51.308;5.624;2023-03-03T09:12:24;28.37;;;11.97;;
7195;SDS011;3639;51.308;5.624;2023-03-03T09:14:55;25.67;;;11.87;;
7195;SDS011;3639;51.308;5.624;2023-03-03T09:19:54;35.97;;;12.50;;
7195;SDS011;3639;51.308;5.624;2023-03-03T09:22:24;25.97;;;11.00;;
7195;SDS011;3639;51.308;5.624;2023-03-03T09:24:52;26.87;;;11.07;;
7195;SDS011;3639;51.308;5.624;2023-03-03T09:27:30;30.17;;;12.87;;
7195;SDS011;3639;51.308;5.624;2023-03-03T09:30:11;30.43;;;11.63;;
7195;SDS011;3639;51.308;5.624;2023-03-03T09:32:56;29.77;;;10.93;;
7195;SDS011;3639;51.308;5.624;2023-03-03T09:37:51;33.60;;;12.60;;
7195;SDS011;3639;51.308;5.624;2023-03-03T09:48:31;32.20;;;12.00;;
7195;SDS011;3639;51.308;5.624;2023-03-03T09:56:31;27.57;;;11.93;;
7195;SDS011;3639;51.308;5.624;2023-03-03T10:01:48;29.60;;;11.33;;
7195;SDS011;3639;51.308;5.624;2023-03-03T10:04:16;37.33;;;11.40;;
7195;SDS011;3639;51.308;5.624;2023-03-03T10:09:47;31.17;;;12.07;;
7195;SDS011;3639;51.308;5.624;2023-03-03T10:12:41;31.80;;;12.57;;
7195;SDS011;3639;51.308;5.624;2023-03-03T10:15:14;32.77;;;11.70;;
7195;SDS011;3639;51.308;5.624;2023-03-03T10:20:35;35.70;;;13.20;;
7195;SDS011;3639;51.308;5.624;2023-03-03T10:23:23;26.10;;;12.40;;
7195;SDS011;3639;51.308;5.624;2023-03-03T10:31:18;31.67;;;12.93;;
7195;SDS011;3639;51.308;5.624;2023-03-03T10:45:28;26.67;;;11.70;;
7195;SDS011;3639;51.308;5.624;2023-03-03T10:50:53;32.77;;;14.20;;
7195;SDS011;3639;51.308;5.624;2023-03-03T10:53:36;28.03;;;11.87;;
7195;SDS011;3639;51.308;5.624;2023-03-03T11:17:56;25.87;;;12.23;;
7195;SDS011;3639;51.308;5.624;2023-03-03T11:20:37;20.60;;;10.23;;
7195;SDS011;3639;51.308;5.624;2023-03-03T11:37:04;25.63;;;10.93;;
7195;SDS011;3639;51.308;5.624;2023-03-03T11:40:20;24.33;;;9.90;;
7195;SDS011;3639;51.308;5.624;2023-03-03T11:45:46;23.37;;;9.93;;
7195;SDS011;3639;51.308;5.624;2023-03-03T11:51:00;25.87;;;10.73;;
7195;SDS011;3639;51.308;5.624;2023-03-03T11:54:16;19.47;;;9.43;;
7195;SDS011;3639;51.308;5.624;2023-03-03T11:56:24;19.73;;;9.73;;
7195;SDS011;3639;51.308;5.624;2023-03-03T12:02:00;19.67;;;9.53;;
7195;SDS011;3639;51.308;5.624;2023-03-03T12:04:41;21.47;;;9.70;;
7195;SDS011;3639;51.308;5.624;2023-03-03T12:12:42;19.70;;;10.70;;
7195;SDS011;3639;51.308;5.624;2023-03-03T12:23:50;23.10;;;9.07;;
7195;SDS011;3639;51.308;5.624;2023-03-03T12:26:04;17.00;;;8.33;;
7195;SDS011;3639;51.308;5.624;2023-03-03T12:28:41;17.80;;;9.13;;
7195;SDS011;3639;51.308;5.624;2023-03-03T12:34:24;18.40;;;9.00;;
7195;SDS011;3639;51.308;5.624;2023-03-03T12:37:20;17.93;;;9.40;;
7195;SDS011;3639;51.308;5.624;2023-03-03T12:40:02;21.77;;;9.43;;
7195;SDS011;3639;51.308;5.624;2023-03-03T12:48:40;22.90;;;8.90;;
7195;SDS011;3639;51.308;5.624;2023-03-03T12:56:48;18.20;;;8.70;;
7195;SDS011;3639;51.308;5.624;2023-03-03T12:59:39;20.60;;;8.97;;
7195;SDS011;3639;51.308;5.624;2023-03-03T13:10:12;18.73;;;8.93;;
7195;SDS011;3639;51.308;5.624;2023-03-03T13:12:43;20.87;;;8.30;;
7195;SDS011;3639;51.308;5.624;2023-03-03T13:15:34;19.70;;;8.63;;
7195;SDS011;3639;51.308;5.624;2023-03-03T13:18:14;19.00;;;9.03;;
7195;SDS011;3639;51.308;5.624;2023-03-03T13:20:57;16.60;;;8.33;;
7195;SDS011;3639;51.308;5.624;2023-03-03T13:32:01;15.17;;;7.53;;
7195;SDS011;3639;51.308;5.624;2023-03-03T13:39:59;19.93;;;8.20;;
7195;SDS011;3639;51.308;5.624;2023-03-03T13:44:58;15.13;;;7.93;;
7195;SDS011;3639;51.308;5.624;2023-03-03T13:47:31;17.53;;;7.90;;
7195;SDS011;3639;51.308;5.624;2023-03-03T13:50:19;19.73;;;8.13;;
7195;SDS011;3639;51.308;5.624;2023-03-03T13:53:22;14.83;;;7.80;;
7195;SDS011;3639;51.308;5.624;2023-03-03T13:59:00;14.50;;;7.23;;
7195;SDS011;3639;51.308;5.624;2023-03-03T14:01:37;16.30;;;8.47;;
7195;SDS011;3639;51.308;5.624;2023-03-03T14:13:08;14.40;;;7.90;;
7195;SDS011;3639;51.308;5.624;2023-03-03T14:18:28;15.73;;;7.47;;
7195;SDS011;3639;51.308;5.624;2023-03-03T14:21:13;17.73;;;7.40;;
7195;SDS011;3639;51.308;5.624;2023-03-03T14:23:46;12.53;;;6.63;;
7195;SDS011;3639;51.308;5.624;2023-03-03T14:26:23;13.63;;;6.43;;
7195;SDS011;3639;51.308;5.624;2023-03-03T14:28:49;13.07;;;7.03;;
7195;SDS011;3639;51.308;5.624;2023-03-03T14:31:24;15.97;;;7.30;;
7195;SDS011;3639;51.308;5.624;2023-03-03T14:33:56;15.13;;;6.93;;
7195;SDS011;3639;51.308;5.624;2023-03-03T14:36:27;14.13;;;7.40;;
7195;SDS011;3639;51.308;5.624;2023-03-03T14:38:59;13.80;;;7.63;;
7195;SDS011;3639;51.308;5.624;2023-03-03T14:41:38;17.67;;;7.77;;
7195;SDS011;3639;51.308;5.624;2023-03-03T14:44:24;16.47;;;8.43;;
7195;SDS011;3639;51.308;5.624;2023-03-03T14:49:45;14.93;;;7.50;;
7195;SDS011;3639;51.308;5.624;2023-03-03T14:54:43;14.83;;;7.90;;
7195;SDS011;3639;51.308;5.624;2023-03-03T14:57:18;11.83;;;6.93;;
7195;SDS011;3639;51.308;5.624;2023-03-03T15:03:03;13.13;;;7.23;;
7195;SDS011;3639;51.308;5.624;2023-03-03T15:05:35;14.70;;;6.63;;
7195;SDS011;3639;51.308;5.624;2023-03-03T15:10:33;14.57;;;7.43;;
7195;SDS011;3639;51.308;5.624;2023-03-03T15:15:50;17.20;;;7.37;;
7195;SDS011;3639;51.308;5.624;2023-03-03T15:18:22;13.13;;;7.03;;
7195;SDS011;3639;51.308;5.624;2023-03-03T15:21:07;12.33;;;7.37;;
7195;SDS011;3639;51.308;5.624;2023-03-03T15:29:21;11.90;;;6.77;;
7195;SDS011;3639;51.308;5.624;2023-03-03T15:42:49;14.20;;;6.87;;
7195;SDS011;3639;51.308;5.624;2023-03-03T15:45:33;10.57;;;6.30;;
7195;SDS011;3639;51.308;5.624;2023-03-03T15:53:51;14.33;;;7.93;;
7195;SDS011;3639;51.308;5.624;2023-03-03T16:01:45;11.13;;;6.53;;
7195;SDS011;3639;51.308;5.624;2023-03-03T16:04:19;11.30;;;6.17;;
7195;SDS011;3639;51.308;5.624;2023-03-03T16:14:53;16.73;;;8.83;;
7195;SDS011;3639;51.308;5.624;2023-03-03T16:23:16;11.07;;;5.50;;
7195;SDS011;3639;51.308;5.624;2023-03-03T16:37:31;9.77;;;5.70;;
7195;SDS011;3639;51.308;5.624;2023-03-03T16:40:20;7.57;;;5.10;;
7195;SDS011;3639;51.308;5.624;2023-03-03T16:42:56;9.37;;;5.07;;
7195;SDS011;3639;51.308;5.624;2023-03-03T16:45:32;8.30;;;5.23;;
7195;SDS011;3639;51.308;5.624;2023-03-03T16:59:02;10.97;;;5.30;;
7195;SDS011;3639;51.308;5.624;2023-03-03T17:07:01;9.90;;;5.53;;
7195;SDS011;3639;51.308;5.624;2023-03-03T17:14:57;7.97;;;5.77;;
7195;SDS011;3639;51.308;5.624;2023-03-03T17:20:34;9.63;;;5.70;;
7195;SDS011;3639;51.308;5.624;2023-03-03T17:37:30;10.43;;;5.93;;
7195;SDS011;3639;51.308;5.624;2023-03-03T17:43:31;9.87;;;5.87;;
7195;SDS011;3639;51.308;5.624;2023-03-03T17:46:11;11.27;;;6.23;;
7195;SDS011;3639;51.308;5.624;2023-03-03T17:51:35;9.90;;;5.80;;
7195;SDS011;3639;51.308;5.624;2023-03-03T17:57:23;10.80;;;6.17;;
7195;SDS011;3639;51.308;5.624;2023-03-03T18:03:40;12.60;;;6.50;;
7195;SDS011;3639;51.308;5.624;2023-03-03T18:11:50;13.60;;;7.23;;
7195;SDS011;3639;51.308;5.624;2023-03-03T18:20:16;7.73;;;5.20;;
7195;SDS011;3639;51.308;5.624;2023-03-03T18:22:47;9.67;;;5.90;;
7195;SDS011;3639;51.308;5.624;2023-03-03T18:25:18;10.83;;;6.47;;
7195;SDS011;3639;51.308;5.624;2023-03-03T18:30:55;8.13;;;4.77;;
7195;SDS011;3639;51.308;5.624;2023-03-03T18:33:34;5.97;;;4.20;;
7195;SDS011;3639;51.308;5.624;2023-03-03T18:36:34;12.50;;;4.83;;
7195;SDS011;3639;51.308;5.624;2023-03-03T18:38:55;6.13;;;4.03;;
7195;SDS011;3639;51.308;5.624;2023-03-03T18:41:25;7.30;;;4.60;;
7195;SDS011;3639;51.308;5.624;2023-03-03T18:43:54;10.87;;;6.63;;
7195;SDS011;3639;51.308;5.624;2023-03-03T18:56:42;6.37;;;4.77;;
7195;SDS011;3639;51.308;5.624;2023-03-03T18:59:08;6.87;;;5.50;;
7195;SDS011;3639;51.308;5.624;2023-03-03T19:01:38;12.13;;;7.50;;
7195;SDS011;3639;51.308;5.624;2023-03-03T19:04:11;7.23;;;4.43;;
7195;SDS011;3639;51.308;5.624;2023-03-03T19:09:09;13.00;;;5.80;;
7195;SDS011;3639;51.308;5.624;2023-03-03T19:11:40;10.67;;;6.27;;
7195;SDS011;3639;51.308;5.624;2023-03-03T19:16:41;3.97;;;3.57;;
7195;SDS011;3639;51.308;5.624;2023-03-03T19:21:41;6.67;;;4.17;;
7195;SDS011;3639;51.308;5.624;2023-03-03T19:54:47;4.13;;;2.90;;
7195;SDS011;3639;51.308;5.624;2023-03-03T20:00:17;6.43;;;3.23;;
7195;SDS011;3639;51.308;5.624;2023-03-03T20:05:47;4.90;;;3.63;;
7195;SDS011;3639;51.308;5.624;2023-03-03T20:17:10;3.70;;;3.00;;
7195;SDS011;3639;51.308;5.624;2023-03-03T20:22:28;5.23;;;2.93;;
7195;SDS011;3639;51.308;5.624;2023-03-03T20:25:18;3.57;;;3.27;;
7195;SDS011;3639;51.308;5.624;2023-03-03T20:30:41;7.30;;;3.10;;
7195;SDS011;3639;51.308;5.624;2023-03-03T20:36:17;3.33;;;2.60;;
7195;SDS011;3639;51.308;5.624;2023-03-03T20:41:39;3.07;;;2.77;;
7195;SDS011;3639;51.308;5.624;2023-03-03T20:55:14;4.50;;;2.73;;
7195;SDS011;3639;51.308;5.624;2023-03-03T21:08:57;3.83;;;3.07;;
7195;SDS011;3639;51.308;5.624;2023-03-03T21:12:03;6.00;;;3.50;;
7195;SDS011;3639;51.308;5.624;2023-03-03T21:14:50;7.53;;;3.90;;
7195;SDS011;3639;51.308;5.624;2023-03-03T21:16:59;13.77;;;3.53;;
7195;SDS011;3639;51.308;5.624;2023-03-03T21:19:35;4.97;;;3.10;;
7195;SDS011;3639;51.308;5.624;2023-03-03T21:22:01;8.50;;;3.00;;
7195;SDS011;3639;51.308;5.624;2023-03-03T21:27:32;5.77;;;2.93;;
7195;SDS011;3639;51.308;5.624;2023-03-03T21:30:11;9.73;;;2.87;;
7195;SDS011;3639;51.308;5.624;2023-03-03T21:32:40;5.47;;;4.03;;
7195;SDS011;3639;51.308;5.624;2023-03-03T21:35:20;5.93;;;3.23;;
7195;SDS011;3639;51.308;5.624;2023-03-03T21:37:47;4.03;;;3.53;;
7195;SDS011;3639;51.308;5.624;2023-03-03T21:40:22;3.93;;;3.47;;
7195;SDS011;3639;51.308;5.624;2023-03-03T21:42:50;6.13;;;2.67;;
7195;SDS011;3639;51.308;5.624;2023-03-03T21:45:17;6.83;;;2.87;;
7195;SDS011;3639;51.308;5.624;2023-03-03T21:47:47;3.73;;;3.37;;
7195;SDS011;3639;51.308;5.624;2023-03-03T21:50:14;3.23;;;2.47;;
7195;SDS011;3639;51.308;5.624;2023-03-03T21:52:40;4.53;;;3.00;;
7195;SDS011;3639;51.308;5.624;2023-03-03T21:55:06;7.40;;;4.20;;
7195;SDS011;3639;51.308;5.624;2023-03-03T21:57:32;8.30;;;4.10;;
7195;SDS011;3639;51.308;5.624;2023-03-03T21:59:59;10.17;;;4.37;;
7195;SDS011;3639;51.308;5.624;2023-03-03T22:02:26;6.57;;;4.20;;
7195;SDS011;3639;51.308;5.624;2023-03-03T22:04:51;6.57;;;4.03;;
7195;SDS011;3639;51.308;5.624;2023-03-03T22:07:17;7.10;;;4.47;;
7195;SDS011;3639;51.308;5.624;2023-03-03T22:09:43;7.77;;;4.13;;
7195;SDS011;3639;51.308;5.624;2023-03-03T22:12:08;5.97;;;4.57;;
7195;SDS011;3639;51.308;5.624;2023-03-03T22:14:34;6.53;;;4.60;;
7195;SDS011;3639;51.308;5.624;2023-03-03T22:17:00;6.20;;;3.57;;
7195;SDS011;3639;51.308;5.624;2023-03-03T22:19:25;8.87;;;3.63;;
7195;SDS011;3639;51.308;5.624;2023-03-03T22:21:51;7.77;;;3.70;;
7195;SDS011;3639;51.308;5.624;2023-03-03T22:24:17;6.93;;;4.17;;
7195;SDS011;3639;51.308;5.624;2023-03-03T22:26:42;11.20;;;4.10;;
7195;SDS011;3639;51.308;5.624;2023-03-03T22:29:08;8.13;;;4.03;;